sensor_id;sensor_type;location;lat;lon;timestamp;temperature;humidity
57434;DHT22;43277;52.672;6.984;2022-09-09T00:06:23;13.90;99.90
57434;DHT22;43277;52.672;6.984;2022-09-09T00:09:12;13.90;99.90
57434;DHT22;43277;52.672;6.984;2022-09-09T00:14:56;13.90;99.90
57434;DHT22;43277;52.672;6.984;2022-09-09T00:23:04;14.00;99.90
57434;DHT22;43277;52.672;6.984;2022-09-09T00:25:45;14.00;99.90
57434;DHT22;43277;52.672;6.984;2022-09-09T00:28:19;13.90;99.90
57434;DHT22;43277;52.672;6.984;2022-09-09T00:30:46;13.90;99.90
57434;DHT22;43277;52.672;6.984;2022-09-09T00:33:16;13.90;99.90
57434;DHT22;43277;52.672;6.984;2022-09-09T00:35:52;13.90;99.90
57434;DHT22;43277;52.672;6.984;2022-09-09T00:38:37;13.90;99.90
57434;DHT22;43277;52.672;6.984;2022-09-09T00:46:50;13.90;99.90
57434;DHT22;43277;52.672;6.984;2022-09-09T00:49:21;13.90;99.90
57434;DHT22;43277;52.672;6.984;2022-09-09T00:54:57;14.00;99.90
57434;DHT22;43277;52.672;6.984;2022-09-09T00:57:35;13.90;99.90
57434;DHT22;43277;52.672;6.984;2022-09-09T01:03:10;13.90;99.90
57434;DHT22;43277;52.672;6.984;2022-09-09T01:11:26;13.90;99.90
57434;DHT22;43277;52.672;6.984;2022-09-09T01:14:13;14.00;99.90
57434;DHT22;43277;52.672;6.984;2022-09-09T01:16:40;14.00;99.90
57434;DHT22;43277;52.672;6.984;2022-09-09T01:19:13;14.10;99.90
57434;DHT22;43277;52.672;6.984;2022-09-09T01:24:55;14.10;99.90
57434;DHT22;43277;52.672;6.984;2022-09-09T01:27:23;14.10;99.90
57434;DHT22;43277;52.672;6.984;2022-09-09T01:29:49;14.10;99.90
57434;DHT22;43277;52.672;6.984;2022-09-09T01:32:41;14.10;99.90
57434;DHT22;43277;52.672;6.984;2022-09-09T01:35:31;14.10;99.90
57434;DHT22;43277;52.672;6.984;2022-09-09T01:37:58;14.10;99.90
57434;DHT22;43277;52.672;6.984;2022-09-09T01:40:26;14.10;99.90
57434;DHT22;43277;52.672;6.984;2022-09-09T01:42:52;14.00;99.90
57434;DHT22;43277;52.672;6.984;2022-09-09T01:45:18;14.00;99.90
57434;DHT22;43277;52.672;6.984;2022-09-09T01:47:45;14.00;99.90
57434;DHT22;43277;52.672;6.984;2022-09-09T01:50:13;14.00;99.90
57434;DHT22;43277;52.672;6.984;2022-09-09T01:52:40;14.00;99.90
57434;DHT22;43277;52.672;6.984;2022-09-09T01:55:07;14.00;99.90
57434;DHT22;43277;52.672;6.984;2022-09-09T01:57:41;14.00;99.90
57434;DHT22;43277;52.672;6.984;2022-09-09T02:00:13;13.90;99.90
57434;DHT22;43277;52.672;6.984;2022-09-09T02:08:09;13.90;99.90
57434;DHT22;43277;52.672;6.984;2022-09-09T02:10:50;13.80;99.90
57434;DHT22;43277;52.672;6.984;2022-09-09T02:13:20;13.80;99.90
57434;DHT22;43277;52.672;6.984;2022-09-09T02:15:58;13.80;99.90
57434;DHT22;43277;52.672;6.984;2022-09-09T02:18:30;13.80;99.90
57434;DHT22;43277;52.672;6.984;2022-09-09T02:20:58;13.90;99.90
57434;DHT22;43277;52.672;6.984;2022-09-09T02:23:24;13.80;99.90
57434;DHT22;43277;52.672;6.984;2022-09-09T02:25:51;13.80;99.90
57434;DHT22;43277;52.672;6.984;2022-09-09T02:28:20;13.80;99.90
57434;DHT22;43277;52.672;6.984;2022-09-09T02:30:48;13.80;99.90
57434;DHT22;43277;52.672;6.984;2022-09-09T02:33:16;13.80;99.90
57434;DHT22;43277;52.672;6.984;2022-09-09T02:35:44;13.90;99.90
57434;DHT22;43277;52.672;6.984;2022-09-09T02:38:12;13.80;99.90
57434;DHT22;43277;52.672;6.984;2022-09-09T02:40:38;13.90;99.90
57434;DHT22;43277;52.672;6.984;2022-09-09T02:43:04;13.90;99.90
57434;DHT22;43277;52.672;6.984;2022-09-09T02:48:30;13.90;99.90
57434;DHT22;43277;52.672;6.984;2022-09-09T02:56:14;14.10;99.90
57434;DHT22;43277;52.672;6.984;2022-09-09T02:58:41;14.30;99.90
57434;DHT22;43277;52.672;6.984;2022-09-09T03:01:07;14.20;99.90
57434;DHT22;43277;52.672;6.984;2022-09-09T03:03:33;14.20;99.90
57434;DHT22;43277;52.672;6.984;2022-09-09T03:05:58;14.20;99.90
57434;DHT22;43277;52.672;6.984;2022-09-09T03:08:24;14.20;99.90
57434;DHT22;43277;52.672;6.984;2022-09-09T03:10:50;14.30;99.90
57434;DHT22;43277;52.672;6.984;2022-09-09T03:13:15;14.30;99.90
57434;DHT22;43277;52.672;6.984;2022-09-09T03:15:41;14.20;99.90
57434;DHT22;43277;52.672;6.984;2022-09-09T03:18:07;14.30;99.90
57434;DHT22;43277;52.672;6.984;2022-09-09T03:20:33;14.30;99.90
57434;DHT22;43277;52.672;6.984;2022-09-09T03:22:59;14.20;99.90
57434;DHT22;43277;52.672;6.984;2022-09-09T03:25:25;14.30;99.90
57434;DHT22;43277;52.672;6.984;2022-09-09T03:27:51;14.30;99.90
57434;DHT22;43277;52.672;6.984;2022-09-09T03:30:22;14.30;99.90
57434;DHT22;43277;52.672;6.984;2022-09-09T03:32:48;14.30;99.90
57434;DHT22;43277;52.672;6.984;2022-09-09T03:35:14;14.30;99.90
57434;DHT22;43277;52.672;6.984;2022-09-09T03:37:40;14.30;99.90
57434;DHT22;43277;52.672;6.984;2022-09-09T03:40:07;14.30;99.90
57434;DHT22;43277;52.672;6.984;2022-09-09T03:42:35;14.30;99.90
57434;DHT22;43277;52.672;6.984;2022-09-09T03:45:03;14.30;99.90
57434;DHT22;43277;52.672;6.984;2022-09-09T03:47:29;14.30;99.90
57434;DHT22;43277;52.672;6.984;2022-09-09T03:49:55;14.30;99.90
57434;DHT22;43277;52.672;6.984;2022-09-09T03:52:20;14.30;99.90
57434;DHT22;43277;52.672;6.984;2022-09-09T03:54:50;14.30;99.90
57434;DHT22;43277;52.672;6.984;2022-09-09T03:57:16;14.30;99.90
57434;DHT22;43277;52.672;6.984;2022-09-09T03:59:43;14.30;99.90
57434;DHT22;43277;52.672;6.984;2022-09-09T04:02:09;14.30;99.90
57434;DHT22;43277;52.672;6.984;2022-09-09T04:04:34;14.30;99.90
57434;DHT22;43277;52.672;6.984;2022-09-09T04:07:00;14.30;99.90
57434;DHT22;43277;52.672;6.984;2022-09-09T04:09:26;14.30;99.90
57434;DHT22;43277;52.672;6.984;2022-09-09T04:11:52;14.30;99.90
57434;DHT22;43277;52.672;6.984;2022-09-09T04:14:19;14.30;99.90
57434;DHT22;43277;52.672;6.984;2022-09-09T04:16:45;14.30;99.90
57434;DHT22;43277;52.672;6.984;2022-09-09T04:19:11;14.30;99.90
57434;DHT22;43277;52.672;6.984;2022-09-09T04:21:40;14.30;99.90
57434;DHT22;43277;52.672;6.984;2022-09-09T04:24:07;14.30;99.90
57434;DHT22;43277;52.672;6.984;2022-09-09T04:26:33;14.30;99.90
57434;DHT22;43277;52.672;6.984;2022-09-09T04:28:59;14.30;99.90
57434;DHT22;43277;52.672;6.984;2022-09-09T04:31:25;14.20;99.90
57434;DHT22;43277;52.672;6.984;2022-09-09T04:33:51;14.30;99.90
57434;DHT22;43277;52.672;6.984;2022-09-09T04:36:17;14.30;99.90
57434;DHT22;43277;52.672;6.984;2022-09-09T04:38:45;14.30;99.90
57434;DHT22;43277;52.672;6.984;2022-09-09T04:41:10;14.20;99.90
57434;DHT22;43277;52.672;6.984;2022-09-09T04:43:39;14.20;99.90
57434;DHT22;43277;52.672;6.984;2022-09-09T04:46:05;14.20;99.90
57434;DHT22;43277;52.672;6.984;2022-09-09T04:48:31;14.20;99.90
57434;DHT22;43277;52.672;6.984;2022-09-09T04:51:05;14.20;99.90
57434;DHT22;43277;52.672;6.984;2022-09-09T04:53:31;14.10;99.90
57434;DHT22;43277;52.672;6.984;2022-09-09T04:56:14;14.10;99.90
57434;DHT22;43277;52.672;6.984;2022-09-09T04:58:41;14.10;99.90
57434;DHT22;43277;52.672;6.984;2022-09-09T05:01:16;14.10;99.90
57434;DHT22;43277;52.672;6.984;2022-09-09T05:03:46;14.00;99.90
57434;DHT22;43277;52.672;6.984;2022-09-09T05:06:13;14.00;99.90
57434;DHT22;43277;52.672;6.984;2022-09-09T05:08:41;13.80;99.90
57434;DHT22;43277;52.672;6.984;2022-09-09T05:11:27;13.90;99.90
57434;DHT22;43277;52.672;6.984;2022-09-09T05:13:53;13.90;99.90
57434;DHT22;43277;52.672;6.984;2022-09-09T05:16:20;13.90;99.90
57434;DHT22;43277;52.672;6.984;2022-09-09T05:18:46;13.80;99.90
57434;DHT22;43277;52.672;6.984;2022-09-09T05:21:14;13.80;99.90
57434;DHT22;43277;52.672;6.984;2022-09-09T05:23:40;13.80;99.90
57434;DHT22;43277;52.672;6.984;2022-09-09T05:26:08;13.80;99.90
57434;DHT22;43277;52.672;6.984;2022-09-09T05:28:34;13.70;99.90
57434;DHT22;43277;52.672;6.984;2022-09-09T05:31:03;13.70;99.90
57434;DHT22;43277;52.672;6.984;2022-09-09T05:33:34;13.70;99.90
57434;DHT22;43277;52.672;6.984;2022-09-09T05:36:02;13.70;99.90
57434;DHT22;43277;52.672;6.984;2022-09-09T05:38:29;13.70;99.90
57434;DHT22;43277;52.672;6.984;2022-09-09T05:40:55;13.70;99.90
57434;DHT22;43277;52.672;6.984;2022-09-09T05:43:24;13.70;99.90
57434;DHT22;43277;52.672;6.984;2022-09-09T05:46:00;13.80;99.90
57434;DHT22;43277;52.672;6.984;2022-09-09T05:48:31;13.70;99.90
57434;DHT22;43277;52.672;6.984;2022-09-09T05:50:58;13.80;99.90
57434;DHT22;43277;52.672;6.984;2022-09-09T05:53:24;13.80;99.90
57434;DHT22;43277;52.672;6.984;2022-09-09T05:55:50;13.80;99.90
57434;DHT22;43277;52.672;6.984;2022-09-09T05:58:16;13.90;99.90
57434;DHT22;43277;52.672;6.984;2022-09-09T06:00:42;14.00;99.90
57434;DHT22;43277;52.672;6.984;2022-09-09T06:03:12;14.00;99.90
57434;DHT22;43277;52.672;6.984;2022-09-09T06:05:38;14.10;99.90
57434;DHT22;43277;52.672;6.984;2022-09-09T06:08:03;14.10;99.90
57434;DHT22;43277;52.672;6.984;2022-09-09T06:10:29;14.20;99.90
57434;DHT22;43277;52.672;6.984;2022-09-09T06:12:54;14.30;99.90
57434;DHT22;43277;52.672;6.984;2022-09-09T06:15:20;14.30;99.90
57434;DHT22;43277;52.672;6.984;2022-09-09T06:17:46;14.40;99.90
57434;DHT22;43277;52.672;6.984;2022-09-09T06:20:12;14.40;99.90
57434;DHT22;43277;52.672;6.984;2022-09-09T06:22:42;14.50;99.90
57434;DHT22;43277;52.672;6.984;2022-09-09T06:25:08;14.50;99.90
57434;DHT22;43277;52.672;6.984;2022-09-09T06:27:34;14.50;99.90
57434;DHT22;43277;52.672;6.984;2022-09-09T06:30:00;14.60;99.90
57434;DHT22;43277;52.672;6.984;2022-09-09T06:32:26;14.60;99.90
57434;DHT22;43277;52.672;6.984;2022-09-09T06:34:52;14.60;99.90
57434;DHT22;43277;52.672;6.984;2022-09-09T06:37:18;14.70;99.90
57434;DHT22;43277;52.672;6.984;2022-09-09T06:39:44;14.70;99.90
57434;DHT22;43277;52.672;6.984;2022-09-09T06:42:09;14.70;99.90
57434;DHT22;43277;52.672;6.984;2022-09-09T06:44:35;14.80;99.90
57434;DHT22;43277;52.672;6.984;2022-09-09T06:47:01;14.90;99.90
57434;DHT22;43277;52.672;6.984;2022-09-09T06:49:27;14.90;99.90
57434;DHT22;43277;52.672;6.984;2022-09-09T06:51:53;15.00;99.90
57434;DHT22;43277;52.672;6.984;2022-09-09T06:54:19;15.00;99.90
57434;DHT22;43277;52.672;6.984;2022-09-09T06:56:45;15.10;99.90
57434;DHT22;43277;52.672;6.984;2022-09-09T06:59:11;15.10;99.90
57434;DHT22;43277;52.672;6.984;2022-09-09T07:01:42;15.20;99.90
57434;DHT22;43277;52.672;6.984;2022-09-09T07:04:12;15.20;99.90
57434;DHT22;43277;52.672;6.984;2022-09-09T07:06:41;15.30;99.90
57434;DHT22;43277;52.672;6.984;2022-09-09T07:09:10;15.40;99.90
57434;DHT22;43277;52.672;6.984;2022-09-09T07:11:45;15.50;99.90
57434;DHT22;43277;52.672;6.984;2022-09-09T07:14:12;15.60;99.90
57434;DHT22;43277;52.672;6.984;2022-09-09T07:16:42;15.70;99.90
57434;DHT22;43277;52.672;6.984;2022-09-09T07:19:08;15.80;99.90
57434;DHT22;43277;52.672;6.984;2022-09-09T07:21:34;15.80;99.90
57434;DHT22;43277;52.672;6.984;2022-09-09T07:24:00;15.90;99.90
57434;DHT22;43277;52.672;6.984;2022-09-09T07:26:29;16.10;99.90
57434;DHT22;43277;52.672;6.984;2022-09-09T07:28:55;16.20;99.90
57434;DHT22;43277;52.672;6.984;2022-09-09T07:31:31;16.20;99.90
57434;DHT22;43277;52.672;6.984;2022-09-09T07:33:57;16.30;99.90
57434;DHT22;43277;52.672;6.984;2022-09-09T07:36:25;16.30;99.90
57434;DHT22;43277;52.672;6.984;2022-09-09T07:38:57;16.40;99.90
57434;DHT22;43277;52.672;6.984;2022-09-09T07:41:24;16.50;99.90
57434;DHT22;43277;52.672;6.984;2022-09-09T07:43:51;16.60;99.90
57434;DHT22;43277;52.672;6.984;2022-09-09T07:46:20;16.50;99.90
57434;DHT22;43277;52.672;6.984;2022-09-09T07:48:51;16.70;99.90
57434;DHT22;43277;52.672;6.984;2022-09-09T07:51:19;16.70;99.90
57434;DHT22;43277;52.672;6.984;2022-09-09T07:53:51;16.80;99.90
57434;DHT22;43277;52.672;6.984;2022-09-09T07:56:18;16.80;99.90
57434;DHT22;43277;52.672;6.984;2022-09-09T07:58:48;16.90;99.90
57434;DHT22;43277;52.672;6.984;2022-09-09T08:01:26;17.00;99.90
57434;DHT22;43277;52.672;6.984;2022-09-09T08:03:58;17.00;99.90
57434;DHT22;43277;52.672;6.984;2022-09-09T08:06:32;17.10;99.90
57434;DHT22;43277;52.672;6.984;2022-09-09T08:08:59;17.10;99.90
57434;DHT22;43277;52.672;6.984;2022-09-09T08:11:26;17.10;99.90
57434;DHT22;43277;52.672;6.984;2022-09-09T08:13:52;17.00;99.90
57434;DHT22;43277;52.672;6.984;2022-09-09T08:16:21;17.10;99.90
57434;DHT22;43277;52.672;6.984;2022-09-09T08:18:48;17.20;99.90
57434;DHT22;43277;52.672;6.984;2022-09-09T08:21:20;17.20;99.90
57434;DHT22;43277;52.672;6.984;2022-09-09T08:23:46;17.20;99.90
57434;DHT22;43277;52.672;6.984;2022-09-09T08:26:32;17.30;99.90
57434;DHT22;43277;52.672;6.984;2022-09-09T08:29:00;17.40;99.90
57434;DHT22;43277;52.672;6.984;2022-09-09T08:31:28;17.50;99.90
57434;DHT22;43277;52.672;6.984;2022-09-09T08:33:54;17.50;99.90
57434;DHT22;43277;52.672;6.984;2022-09-09T08:36:25;17.60;99.90
57434;DHT22;43277;52.672;6.984;2022-09-09T08:38:55;17.80;99.90
57434;DHT22;43277;52.672;6.984;2022-09-09T08:41:48;17.80;99.90
57434;DHT22;43277;52.672;6.984;2022-09-09T08:47:28;18.10;99.90
57434;DHT22;43277;52.672;6.984;2022-09-09T08:53:00;18.40;99.90
57434;DHT22;43277;52.672;6.984;2022-09-09T08:58:20;18.50;99.90
57434;DHT22;43277;52.672;6.984;2022-09-09T09:09:18;18.40;99.90
57434;DHT22;43277;52.672;6.984;2022-09-09T09:14:23;18.50;99.90
57434;DHT22;43277;52.672;6.984;2022-09-09T09:19:16;18.50;99.90
57434;DHT22;43277;52.672;6.984;2022-09-09T09:22:03;18.70;99.90
57434;DHT22;43277;52.672;6.984;2022-09-09T09:27:34;19.10;99.90
57434;DHT22;43277;52.672;6.984;2022-09-09T09:30:05;19.20;99.90
57434;DHT22;43277;52.672;6.984;2022-09-09T09:32:39;19.20;99.90
57434;DHT22;43277;52.672;6.984;2022-09-09T09:35:11;19.20;99.90
57434;DHT22;43277;52.672;6.984;2022-09-09T09:37:37;19.20;99.90
57434;DHT22;43277;52.672;6.984;2022-09-09T09:40:12;19.10;99.90
57434;DHT22;43277;52.672;6.984;2022-09-09T09:42:57;19.10;99.90
57434;DHT22;43277;52.672;6.984;2022-09-09T09:48:05;19.10;99.90
57434;DHT22;43277;52.672;6.984;2022-09-09T09:50:31;19.20;99.90
57434;DHT22;43277;52.672;6.984;2022-09-09T09:53:03;19.30;99.90
57434;DHT22;43277;52.672;6.984;2022-09-09T09:55:31;19.40;99.90
57434;DHT22;43277;52.672;6.984;2022-09-09T09:58:06;19.40;99.90
57434;DHT22;43277;52.672;6.984;2022-09-09T10:00:33;19.30;99.90
57434;DHT22;43277;52.672;6.984;2022-09-09T10:03:00;19.40;99.90
57434;DHT22;43277;52.672;6.984;2022-09-09T10:05:29;19.60;99.90
57434;DHT22;43277;52.672;6.984;2022-09-09T10:08:14;19.80;99.90
57434;DHT22;43277;52.672;6.984;2022-09-09T10:19:33;20.60;99.90
57434;DHT22;43277;52.672;6.984;2022-09-09T10:22:09;20.70;99.90
57434;DHT22;43277;52.672;6.984;2022-09-09T10:25:18;20.70;99.90
57434;DHT22;43277;52.672;6.984;2022-09-09T10:28:23;20.80;99.90
57434;DHT22;43277;52.672;6.984;2022-09-09T10:36:29;21.20;99.90
57434;DHT22;43277;52.672;6.984;2022-09-09T10:44:29;21.60;99.90
57434;DHT22;43277;52.672;6.984;2022-09-09T10:47:11;21.70;99.90
57434;DHT22;43277;52.672;6.984;2022-09-09T10:52:47;21.70;99.90
57434;DHT22;43277;52.672;6.984;2022-09-09T10:55:20;21.60;99.90
57434;DHT22;43277;52.672;6.984;2022-09-09T10:57:48;21.40;99.90
57434;DHT22;43277;52.672;6.984;2022-09-09T11:03:09;21.10;99.90
57434;DHT22;43277;52.672;6.984;2022-09-09T11:05:47;21.20;99.90
57434;DHT22;43277;52.672;6.984;2022-09-09T11:08:20;21.50;99.90
57434;DHT22;43277;52.672;6.984;2022-09-09T11:11:04;21.90;99.90
57434;DHT22;43277;52.672;6.984;2022-09-09T11:13:42;22.20;99.90
57434;DHT22;43277;52.672;6.984;2022-09-09T11:16:35;22.50;99.90
57434;DHT22;43277;52.672;6.984;2022-09-09T11:19:19;23.00;99.90
57434;DHT22;43277;52.672;6.984;2022-09-09T11:21:49;23.30;97.60
57434;DHT22;43277;52.672;6.984;2022-09-09T11:27:09;22.90;97.40
57434;DHT22;43277;52.672;6.984;2022-09-09T11:40:25;22.00;97.20
57434;DHT22;43277;52.672;6.984;2022-09-09T11:43:24;21.80;98.60
57434;DHT22;43277;52.672;6.984;2022-09-09T11:45:56;21.80;97.90
57434;DHT22;43277;52.672;6.984;2022-09-09T11:48:35;21.90;97.10
57434;DHT22;43277;52.672;6.984;2022-09-09T11:51:09;22.10;96.00
57434;DHT22;43277;52.672;6.984;2022-09-09T11:53:49;22.10;97.60
57434;DHT22;43277;52.672;6.984;2022-09-09T11:56:31;22.10;98.40
57434;DHT22;43277;52.672;6.984;2022-09-09T11:59:03;22.20;97.80
57434;DHT22;43277;52.672;6.984;2022-09-09T12:02:18;22.40;98.00
57434;DHT22;43277;52.672;6.984;2022-09-09T12:04:30;22.50;96.60
57434;DHT22;43277;52.672;6.984;2022-09-09T12:07:20;22.40;97.20
57434;DHT22;43277;52.672;6.984;2022-09-09T12:12:36;22.20;96.00
57434;DHT22;43277;52.672;6.984;2022-09-09T12:17:48;22.40;97.30
57434;DHT22;43277;52.672;6.984;2022-09-09T12:25:55;22.60;95.70
57434;DHT22;43277;52.672;6.984;2022-09-09T12:28:44;22.20;95.70
57434;DHT22;43277;52.672;6.984;2022-09-09T12:31:27;22.00;96.00
57434;DHT22;43277;52.672;6.984;2022-09-09T12:34:09;21.70;97.00
57434;DHT22;43277;52.672;6.984;2022-09-09T12:36:35;21.60;97.30
57434;DHT22;43277;52.672;6.984;2022-09-09T12:39:15;21.30;98.60
57434;DHT22;43277;52.672;6.984;2022-09-09T12:41:51;21.10;99.90
57434;DHT22;43277;52.672;6.984;2022-09-09T12:44:21;20.60;99.90
57434;DHT22;43277;52.672;6.984;2022-09-09T12:46:48;20.20;99.90
57434;DHT22;43277;52.672;6.984;2022-09-09T12:49:30;20.10;99.90
57434;DHT22;43277;52.672;6.984;2022-09-09T12:52:25;20.20;99.90
57434;DHT22;43277;52.672;6.984;2022-09-09T12:54:52;20.60;99.90
57434;DHT22;43277;52.672;6.984;2022-09-09T12:57:20;20.90;99.90
57434;DHT22;43277;52.672;6.984;2022-09-09T12:59:47;21.10;99.90
57434;DHT22;43277;52.672;6.984;2022-09-09T13:02:22;21.20;99.90
57434;DHT22;43277;52.672;6.984;2022-09-09T13:04:48;21.10;99.90
57434;DHT22;43277;52.672;6.984;2022-09-09T13:07:16;21.10;99.90
57434;DHT22;43277;52.672;6.984;2022-09-09T13:09:43;20.90;99.90
57434;DHT22;43277;52.672;6.984;2022-09-09T13:12:21;20.70;99.90
57434;DHT22;43277;52.672;6.984;2022-09-09T13:14:55;20.50;99.90
57434;DHT22;43277;52.672;6.984;2022-09-09T13:17:22;20.40;99.90
57434;DHT22;43277;52.672;6.984;2022-09-09T13:19:49;20.50;99.90
57434;DHT22;43277;52.672;6.984;2022-09-09T13:25:17;20.50;99.90
57434;DHT22;43277;52.672;6.984;2022-09-09T13:27:53;20.90;99.90
57434;DHT22;43277;52.672;6.984;2022-09-09T13:30:30;21.30;99.90
57434;DHT22;43277;52.672;6.984;2022-09-09T13:33:23;21.60;99.90
57434;DHT22;43277;52.672;6.984;2022-09-09T13:36:01;22.00;99.90
57434;DHT22;43277;52.672;6.984;2022-09-09T13:38:35;22.50;99.90
57434;DHT22;43277;52.672;6.984;2022-09-09T13:41:06;22.70;99.60
57434;DHT22;43277;52.672;6.984;2022-09-09T13:43:51;22.60;98.80
57434;DHT22;43277;52.672;6.984;2022-09-09T13:51:42;22.20;97.40
57434;DHT22;43277;52.672;6.984;2022-09-09T13:54:10;21.90;98.30
57434;DHT22;43277;52.672;6.984;2022-09-09T13:56:37;21.80;97.90
57434;DHT22;43277;52.672;6.984;2022-09-09T13:59:05;21.70;98.00
57434;DHT22;43277;52.672;6.984;2022-09-09T14:01:31;21.40;98.40
57434;DHT22;43277;52.672;6.984;2022-09-09T14:03:58;21.40;98.70
57434;DHT22;43277;52.672;6.984;2022-09-09T14:06:24;21.50;98.40
57434;DHT22;43277;52.672;6.984;2022-09-09T14:08:50;21.60;98.00
57434;DHT22;43277;52.672;6.984;2022-09-09T14:11:17;21.30;98.60
57434;DHT22;43277;52.672;6.984;2022-09-09T14:13:43;21.00;99.00
57434;DHT22;43277;52.672;6.984;2022-09-09T14:16:09;20.70;99.20
57434;DHT22;43277;52.672;6.984;2022-09-09T14:18:35;20.60;99.90
57434;DHT22;43277;52.672;6.984;2022-09-09T14:21:00;20.60;99.90
57434;DHT22;43277;52.672;6.984;2022-09-09T14:23:27;20.80;99.90
57434;DHT22;43277;52.672;6.984;2022-09-09T14:25:53;21.50;99.50
57434;DHT22;43277;52.672;6.984;2022-09-09T14:28:18;21.80;98.90
57434;DHT22;43277;52.672;6.984;2022-09-09T14:30:44;21.90;99.20
57434;DHT22;43277;52.672;6.984;2022-09-09T14:33:15;21.70;99.90
57434;DHT22;43277;52.672;6.984;2022-09-09T14:35:41;21.40;99.90
57434;DHT22;43277;52.672;6.984;2022-09-09T14:38:07;21.20;99.80
57434;DHT22;43277;52.672;6.984;2022-09-09T14:40:35;21.70;98.40
57434;DHT22;43277;52.672;6.984;2022-09-09T14:43:01;21.90;98.80
57434;DHT22;43277;52.672;6.984;2022-09-09T14:45:27;22.00;99.00
57434;DHT22;43277;52.672;6.984;2022-09-09T14:47:53;21.90;99.40
57434;DHT22;43277;52.672;6.984;2022-09-09T14:50:20;21.70;99.00
57434;DHT22;43277;52.672;6.984;2022-09-09T14:52:46;21.40;99.50
57434;DHT22;43277;52.672;6.984;2022-09-09T14:55:12;21.10;99.90
57434;DHT22;43277;52.672;6.984;2022-09-09T14:57:38;20.90;99.90
57434;DHT22;43277;52.672;6.984;2022-09-09T15:00:06;20.70;99.90
57434;DHT22;43277;52.672;6.984;2022-09-09T15:02:32;20.60;99.90
57434;DHT22;43277;52.672;6.984;2022-09-09T15:04:58;20.40;99.90
57434;DHT22;43277;52.672;6.984;2022-09-09T15:07:25;20.50;99.90
57434;DHT22;43277;52.672;6.984;2022-09-09T15:09:50;20.60;99.90
57434;DHT22;43277;52.672;6.984;2022-09-09T15:12:18;21.30;99.90
57434;DHT22;43277;52.672;6.984;2022-09-09T15:14:46;21.90;99.90
57434;DHT22;43277;52.672;6.984;2022-09-09T15:17:13;22.00;99.90
57434;DHT22;43277;52.672;6.984;2022-09-09T15:19:38;21.80;99.90
57434;DHT22;43277;52.672;6.984;2022-09-09T15:22:08;21.90;99.90
57434;DHT22;43277;52.672;6.984;2022-09-09T15:24:34;22.10;99.70
57434;DHT22;43277;52.672;6.984;2022-09-09T15:27:01;22.40;99.40
57434;DHT22;43277;52.672;6.984;2022-09-09T15:29:27;22.50;97.70
57434;DHT22;43277;52.672;6.984;2022-09-09T15:31:55;22.10;97.80
57434;DHT22;43277;52.672;6.984;2022-09-09T15:34:21;21.80;98.20
57434;DHT22;43277;52.672;6.984;2022-09-09T15:36:47;21.70;98.40
57434;DHT22;43277;52.672;6.984;2022-09-09T15:39:16;21.70;98.60
57434;DHT22;43277;52.672;6.984;2022-09-09T15:41:45;21.90;98.60
57434;DHT22;43277;52.672;6.984;2022-09-09T15:44:12;22.00;98.40
57434;DHT22;43277;52.672;6.984;2022-09-09T15:46:43;22.10;98.60
57434;DHT22;43277;52.672;6.984;2022-09-09T15:49:17;22.40;96.80
57434;DHT22;43277;52.672;6.984;2022-09-09T15:51:47;22.30;97.60
57434;DHT22;43277;52.672;6.984;2022-09-09T15:54:17;22.20;97.90
57434;DHT22;43277;52.672;6.984;2022-09-09T15:56:44;22.10;98.20
57434;DHT22;43277;52.672;6.984;2022-09-09T15:59:10;21.90;98.60
57434;DHT22;43277;52.672;6.984;2022-09-09T16:01:38;21.90;98.80
57434;DHT22;43277;52.672;6.984;2022-09-09T16:04:05;21.70;99.10
57434;DHT22;43277;52.672;6.984;2022-09-09T16:06:32;21.50;98.70
57434;DHT22;43277;52.672;6.984;2022-09-09T16:08:59;21.40;99.40
57434;DHT22;43277;52.672;6.984;2022-09-09T16:11:31;21.10;99.90
57434;DHT22;43277;52.672;6.984;2022-09-09T16:13:57;20.80;99.90
57434;DHT22;43277;52.672;6.984;2022-09-09T16:16:26;20.50;99.90
57434;DHT22;43277;52.672;6.984;2022-09-09T16:18:54;20.30;99.90
57434;DHT22;43277;52.672;6.984;2022-09-09T16:21:25;20.10;99.90
57434;DHT22;43277;52.672;6.984;2022-09-09T16:23:51;20.00;99.90
57434;DHT22;43277;52.672;6.984;2022-09-09T16:26:19;19.90;99.90
57434;DHT22;43277;52.672;6.984;2022-09-09T16:28:44;19.70;99.90
57434;DHT22;43277;52.672;6.984;2022-09-09T16:31:15;19.80;99.90
57434;DHT22;43277;52.672;6.984;2022-09-09T16:33:42;19.80;99.90
57434;DHT22;43277;52.672;6.984;2022-09-09T16:36:09;19.70;99.90
57434;DHT22;43277;52.672;6.984;2022-09-09T16:38:36;19.70;99.90
57434;DHT22;43277;52.672;6.984;2022-09-09T16:41:03;19.60;99.90
57434;DHT22;43277;52.672;6.984;2022-09-09T16:43:31;19.60;99.90
57434;DHT22;43277;52.672;6.984;2022-09-09T16:45:57;19.50;99.90
57434;DHT22;43277;52.672;6.984;2022-09-09T16:48:22;19.50;99.90
57434;DHT22;43277;52.672;6.984;2022-09-09T16:50:48;19.50;99.90
57434;DHT22;43277;52.672;6.984;2022-09-09T16:53:14;19.50;99.90
57434;DHT22;43277;52.672;6.984;2022-09-09T16:55:40;19.50;99.90
57434;DHT22;43277;52.672;6.984;2022-09-09T16:58:09;19.40;99.90
57434;DHT22;43277;52.672;6.984;2022-09-09T17:00:35;19.30;99.90
57434;DHT22;43277;52.672;6.984;2022-09-09T17:03:01;19.20;99.90
57434;DHT22;43277;52.672;6.984;2022-09-09T17:05:26;19.20;99.90
57434;DHT22;43277;52.672;6.984;2022-09-09T17:07:53;19.10;99.90
57434;DHT22;43277;52.672;6.984;2022-09-09T17:10:20;19.10;99.90
57434;DHT22;43277;52.672;6.984;2022-09-09T17:12:46;19.00;99.90
57434;DHT22;43277;52.672;6.984;2022-09-09T17:15:12;19.00;99.90
57434;DHT22;43277;52.672;6.984;2022-09-09T17:17:37;19.00;99.90
57434;DHT22;43277;52.672;6.984;2022-09-09T17:20:03;18.90;99.90
57434;DHT22;43277;52.672;6.984;2022-09-09T17:22:31;18.90;99.90
57434;DHT22;43277;52.672;6.984;2022-09-09T17:24:58;18.90;99.90
57434;DHT22;43277;52.672;6.984;2022-09-09T17:27:23;18.80;99.90
57434;DHT22;43277;52.672;6.984;2022-09-09T17:29:49;18.80;99.90
57434;DHT22;43277;52.672;6.984;2022-09-09T17:32:14;18.70;99.90
57434;DHT22;43277;52.672;6.984;2022-09-09T17:34:40;18.70;99.90
57434;DHT22;43277;52.672;6.984;2022-09-09T17:37:06;18.60;99.90
57434;DHT22;43277;52.672;6.984;2022-09-09T17:39:33;18.60;99.90
57434;DHT22;43277;52.672;6.984;2022-09-09T17:41:58;18.60;99.90
57434;DHT22;43277;52.672;6.984;2022-09-09T17:44:24;18.60;99.90
57434;DHT22;43277;52.672;6.984;2022-09-09T17:46:50;18.50;99.90
57434;DHT22;43277;52.672;6.984;2022-09-09T17:49:16;18.50;99.90
57434;DHT22;43277;52.672;6.984;2022-09-09T17:51:45;18.40;99.90
57434;DHT22;43277;52.672;6.984;2022-09-09T17:54:17;18.40;99.90
57434;DHT22;43277;52.672;6.984;2022-09-09T17:56:44;18.40;99.90
57434;DHT22;43277;52.672;6.984;2022-09-09T17:59:12;18.30;99.90
57434;DHT22;43277;52.672;6.984;2022-09-09T18:01:39;18.30;99.90